Time;durP1;ratioP1;P1;durP2;ratioP2;P2;SDS_P1;SDS_P2;PMS_P1;PMS_P2;Temp;Humidity;BMP_temperature;BMP_pressure;BME280_temperature;BME280_humidity;BME280_pressure;Samples;Min_cycle;Max_cycle;Signal;HPM_P1;HPM_P2
2021/12/10 00:00:57;;;;;;;60.00;20.30;;;-0.10;99.90;;;;;;5093540;28;20185;-55
2021/12/10 00:03:29;;;;;;;58.97;19.67;;;-0.10;99.90;;;;;;5093271;28;20184;-54
2021/12/10 00:06:03;;;;;;;67.33;19.90;;;-0.10;99.90;;;;;;5093445;28;20165;-56
2021/12/10 00:08:32;;;;;;;50.97;18.93;;;0.00;99.90;;;;;;5075740;28;20552;-54
2021/12/10 00:11:01;;;;;;;63.23;21.20;;;0.00;99.90;;;;;;5093296;28;20185;-55
2021/12/10 00:13:28;;;;;;;48.93;18.43;;;0.00;99.90;;;;;;5045711;28;1346624;-56
2021/12/10 00:15:55;;;;;;;60.93;20.00;;;0.10;99.90;;;;;;5093707;28;20269;-54
2021/12/10 00:18:24;;;;;;;64.70;20.13;;;0.10;99.90;;;;;;5094107;28;20204;-57
2021/12/10 00:20:57;;;;;;;63.60;21.07;;;0.10;99.90;;;;;;5094209;28;20267;-53
2021/12/10 00:23:23;;;;;;;61.00;22.27;;;0.10;99.90;;;;;;5094081;28;20636;-53
2021/12/10 00:25:51;;;;;;;62.13;22.87;;;0.20;99.90;;;;;;5094116;28;20178;-54
2021/12/10 00:28:33;;;;;;;62.50;20.73;;;0.20;99.90;;;;;;5093575;28;20178;-56
2021/12/10 00:31:32;;;;;;;63.30;20.13;;;0.20;99.90;;;;;;5093872;28;20255;-55
2021/12/10 00:34:21;;;;;;;69.17;22.47;;;0.20;99.90;;;;;;5093637;28;20257;-54
2021/12/10 00:36:48;;;;;;;72.77;25.30;;;0.20;99.90;;;;;;5080476;28;20185;-54
2021/12/10 00:39:23;;;;;;;68.27;20.77;;;0.10;99.90;;;;;;5093590;28;20212;-55
2021/12/10 00:41:50;;;;;;;68.47;24.03;;;0.10;99.90;;;;;;5093162;28;20209;-54
2021/12/10 00:44:16;;;;;;;56.13;18.23;;;0.10;99.90;;;;;;5093515;28;20194;-54
2021/12/10 00:46:42;;;;;;;63.43;21.80;;;0.10;99.90;;;;;;5094040;28;20273;-54
2021/12/10 00:49:08;;;;;;;64.33;20.77;;;0.10;99.90;;;;;;5093310;28;20258;-53
2021/12/10 00:51:36;;;;;;;61.73;21.57;;;0.10;99.90;;;;;;5093722;28;20263;-55
2021/12/10 00:54:03;;;;;;;73.10;21.23;;;0.10;99.90;;;;;;5093230;28;20209;-54
2021/12/10 00:56:28;;;;;;;65.53;21.23;;;0.10;99.90;;;;;;5093590;28;20202;-55
2021/12/10 00:58:54;;;;;;;70.40;22.60;;;0.10;99.90;;;;;;5093278;28;20268;-67
2021/12/10 01:01:24;;;;;;;64.13;21.67;;;0.10;99.90;;;;;;5093266;28;20227;-54
2021/12/10 01:04:01;;;;;;;61.83;21.40;;;0.10;99.90;;;;;;5093256;28;20242;-55
2021/12/10 01:06:28;;;;;;;69.37;21.97;;;0.10;99.90;;;;;;5093301;28;20161;-55
2021/12/10 01:09:15;;;;;;;61.93;19.37;;;0.10;99.90;;;;;;5093242;28;20556;-55
2021/12/10 01:11:50;;;;;;;60.97;20.97;;;0.10;99.90;;;;;;5092965;28;20267;-55
2021/12/10 01:14:37;;;;;;;59.80;20.10;;;0.10;99.90;;;;;;5092387;28;20237;-55
2021/12/10 01:25:36;;;;;;;58.73;19.73;;;0.10;99.90;;;;;;5092757;28;20210;-53
2021/12/10 01:28:04;;;;;;;63.83;22.10;;;0.10;99.90;;;;;;5092757;28;20184;-53
2021/12/10 01:30:35;;;;;;;63.43;20.67;;;0.10;99.90;;;;;;5092890;28;20184;-53
2021/12/10 01:33:05;;;;;;;71.33;23.57;;;0.10;99.90;;;;;;5092758;28;20169;-55
2021/12/10 01:35:36;;;;;;;66.23;20.60;;;0.10;99.90;;;;;;5092457;28;20163;-55
2021/12/10 01:38:05;;;;;;;74.40;23.97;;;0.10;99.90;;;;;;5092680;28;20169;-54
2021/12/10 01:40:34;;;;;;;63.90;20.50;;;0.20;99.90;;;;;;5092494;28;20186;-54
2021/12/10 01:43:06;;;;;;;74.50;23.40;;;0.20;99.90;;;;;;5092061;28;20302;-54
2021/12/10 01:45:36;;;;;;;377.83;41.47;;;0.20;99.90;;;;;;5092577;28;20176;-55
2021/12/10 01:48:09;;;;;;;78.67;24.80;;;0.30;99.90;;;;;;5092272;28;20618;-52
2021/12/10 01:50:36;;;;;;;64.57;21.87;;;0.40;99.90;;;;;;5092560;28;20170;-53
2021/12/10 01:53:06;;;;;;;60.10;20.23;;;0.50;99.90;;;;;;5092321;28;20274;-52
2021/12/10 01:55:34;;;;;;;64.73;21.73;;;0.50;99.90;;;;;;5092517;28;20175;-53
2021/12/10 01:58:01;;;;;;;68.23;20.97;;;0.40;99.90;;;;;;5092398;28;20185;-54
2021/12/10 02:00:31;;;;;;;78.37;23.63;;;0.40;99.90;;;;;;5092472;28;20182;-53
2021/12/10 02:02:58;;;;;;;75.87;21.87;;;0.50;99.90;;;;;;5092561;28;20259;-51
2021/12/10 02:05:24;;;;;;;73.63;23.27;;;0.50;99.90;;;;;;5092463;28;20196;-49
2021/12/10 02:07:51;;;;;;;84.13;22.63;;;0.40;99.90;;;;;;5092360;28;20645;-53
2021/12/10 02:10:20;;;;;;;78.30;21.97;;;0.50;99.90;;;;;;5091665;28;20257;-55
2021/12/10 02:12:46;;;;;;;65.07;21.13;;;0.50;99.90;;;;;;5092054;28;20194;-53
2021/12/10 02:15:14;;;;;;;80.37;20.70;;;0.40;99.90;;;;;;5092170;28;20609;-53
2021/12/10 02:17:44;;;;;;;66.03;19.07;;;0.50;99.90;;;;;;5092365;28;20638;-52
2021/12/10 02:20:33;;;;;;;67.13;20.70;;;0.50;99.90;;;;;;5091797;28;20709;-57
2021/12/10 02:23:04;;;;;;;73.87;19.63;;;0.50;99.90;;;;;;5091885;28;20187;-68
2021/12/10 02:25:32;;;;;;;75.50;22.37;;;0.50;99.90;;;;;;5092177;28;20187;-53
2021/12/10 02:27:58;;;;;;;79.07;21.43;;;0.50;99.90;;;;;;5092053;28;20627;-55
2021/12/10 02:30:27;;;;;;;80.50;20.63;;;0.60;99.90;;;;;;5092308;28;20169;-55
2021/12/10 02:32:53;;;;;;;65.03;20.27;;;0.60;99.90;;;;;;5085410;28;20603;-54
2021/12/10 02:35:20;;;;;;;65.67;18.33;;;0.60;99.90;;;;;;5077152;28;20186;-51
2021/12/10 02:37:47;;;;;;;73.13;20.23;;;0.60;99.90;;;;;;5071630;28;20220;-56
2021/12/10 02:40:17;;;;;;;81.07;22.80;;;0.60;99.90;;;;;;5071625;28;20631;-52
2021/12/10 02:42:44;;;;;;;62.47;19.80;;;0.70;99.90;;;;;;5071924;28;20211;-51
2021/12/10 02:45:12;;;;;;;73.13;21.53;;;0.70;99.90;;;;;;5071513;28;20196;-54
2021/12/10 02:47:38;;;;;;;75.40;21.47;;;0.70;99.90;;;;;;5071815;28;20248;-50
2021/12/10 02:50:07;;;;;;;89.87;24.07;;;0.70;99.90;;;;;;5071657;28;20214;-55
2021/12/10 02:52:34;;;;;;;86.17;23.30;;;0.60;99.90;;;;;;5071584;28;20191;-54
2021/12/10 02:54:59;;;;;;;61.37;18.70;;;0.70;99.90;;;;;;5071808;28;20172;-53
2021/12/10 02:57:27;;;;;;;71.10;21.13;;;0.70;99.90;;;;;;5071498;28;20763;-55
2021/12/10 02:59:53;;;;;;;68.37;20.70;;;0.70;99.90;;;;;;5078920;28;20181;-56
2021/12/10 03:02:22;;;;;;;67.53;20.70;;;0.80;99.90;;;;;;5091651;28;20285;-54
2021/12/10 03:04:48;;;;;;;70.07;19.80;;;0.80;99.90;;;;;;5092762;28;20198;-51
2021/12/10 03:07:16;;;;;;;74.43;22.60;;;0.80;99.90;;;;;;5095235;28;20240;-52
2021/12/10 03:09:45;;;;;;;62.87;21.07;;;0.80;99.90;;;;;;5077281;28;20190;-58
2021/12/10 03:12:13;;;;;;;69.53;19.90;;;0.80;99.90;;;;;;5095393;28;20179;-55
2021/12/10 03:14:41;;;;;;;66.97;20.83;;;0.80;99.90;;;;;;5095074;28;20249;-55
2021/12/10 03:17:11;;;;;;;77.00;18.77;;;0.80;99.90;;;;;;5095075;28;20253;-55
2021/12/10 03:19:38;;;;;;;78.47;20.30;;;0.80;99.90;;;;;;5095426;28;20170;-55
2021/12/10 03:22:06;;;;;;;71.93;21.97;;;0.80;99.90;;;;;;5094758;28;20554;-54
2021/12/10 03:24:33;;;;;;;105.73;19.40;;;0.80;99.90;;;;;;5094787;28;20216;-55
2021/12/10 03:27:03;;;;;;;132.80;21.17;;;0.70;99.90;;;;;;5095193;28;20177;-53
2021/12/10 03:29:32;;;;;;;131.00;20.00;;;0.60;99.90;;;;;;5095092;28;20174;-55
2021/12/10 03:32:02;;;;;;;200.97;22.87;;;0.50;99.90;;;;;;5095064;28;20190;-54
2021/12/10 03:34:28;;;;;;;162.57;23.17;;;0.50;99.90;;;;;;5095062;28;20174;-54
2021/12/10 03:36:54;;;;;;;156.10;22.97;;;0.40;99.90;;;;;;5094766;28;20186;-54
2021/12/10 03:39:23;;;;;;;210.63;22.50;;;0.40;99.90;;;;;;5094498;28;20669;-53
2021/12/10 03:41:50;;;;;;;183.57;26.17;;;0.40;99.90;;;;;;5094742;28;20630;-56
2021/12/10 03:44:16;;;;;;;198.97;24.03;;;0.40;99.90;;;;;;5094359;28;20222;-53
2021/12/10 03:46:42;;;;;;;183.20;22.80;;;0.40;99.90;;;;;;5094555;28;20207;-55
2021/12/10 03:49:08;;;;;;;181.20;24.33;;;0.40;99.90;;;;;;5094518;28;20189;-55
2021/12/10 03:51:36;;;;;;;180.13;24.57;;;0.40;99.90;;;;;;5094739;28;20213;-54
2021/12/10 03:54:05;;;;;;;127.10;22.67;;;0.40;99.90;;;;;;5094562;28;20175;-54
2021/12/10 03:56:33;;;;;;;192.60;25.77;;;0.40;99.90;;;;;;5094687;28;20175;-54
2021/12/10 03:59:02;;;;;;;117.33;22.17;;;0.40;99.90;;;;;;5094550;28;20233;-54
2021/12/10 04:01:33;;;;;;;146.93;23.83;;;0.50;99.90;;;;;;5094072;28;20561;-54
2021/12/10 04:04:02;;;;;;;244.77;24.93;;;0.40;99.90;;;;;;5094600;28;20170;-55
2021/12/10 04:06:28;;;;;;;184.37;22.20;;;0.40;99.90;;;;;;5094257;28;20171;-54
2021/12/10 04:08:55;;;;;;;169.30;21.37;;;0.40;99.90;;;;;;5094453;28;20182;-52
2021/12/10 04:11:22;;;;;;;98.03;21.70;;;0.50;99.90;;;;;;5094003;28;20269;-55
2021/12/10 04:13:50;;;;;;;220.47;24.90;;;0.50;99.90;;;;;;5093770;28;20244;-54
2021/12/10 04:16:18;;;;;;;157.73;22.43;;;0.50;99.90;;;;;;5092606;28;20655;-56
2021/12/10 04:18:48;;;;;;;134.67;24.37;;;0.50;99.90;;;;;;5094187;28;20186;-56
2021/12/10 04:21:14;;;;;;;158.03;23.80;;;0.50;99.90;;;;;;5093769;28;20289;-55
2021/12/10 04:23:43;;;;;;;143.47;21.50;;;0.50;99.90;;;;;;5093662;28;20187;-57
2021/12/10 04:26:12;;;;;;;130.03;21.37;;;0.50;99.90;;;;;;5093531;28;20203;-53
2021/12/10 04:28:37;;;;;;;116.27;23.53;;;0.50;99.90;;;;;;5093850;28;20173;-53
2021/12/10 04:31:03;;;;;;;127.80;26.13;;;0.50;99.90;;;;;;5075349;28;20197;-56
2021/12/10 04:33:29;;;;;;;157.73;24.33;;;0.50;99.90;;;;;;5093475;28;20179;-53
2021/12/10 04:35:58;;;;;;;133.90;26.23;;;0.50;99.90;;;;;;5075410;28;20282;-55
2021/12/10 04:38:26;;;;;;;132.07;24.33;;;0.60;99.90;;;;;;5093478;28;20182;-51
2021/12/10 04:40:56;;;;;;;140.37;27.77;;;0.60;99.90;;;;;;5093436;28;20174;-55
2021/12/10 04:43:23;;;;;;;98.13;25.70;;;0.60;99.90;;;;;;5092809;28;20179;-55
2021/12/10 04:45:53;;;;;;;165.13;24.83;;;0.60;99.90;;;;;;5093477;28;20270;-55
2021/12/10 04:48:18;;;;;;;152.27;25.30;;;0.60;99.90;;;;;;5093416;28;20166;-54
2021/12/10 04:50:44;;;;;;;167.07;27.00;;;0.60;99.90;;;;;;5093282;28;20191;-55
2021/12/10 04:53:10;;;;;;;161.10;32.65;;;0.60;99.90;;;;;;5092554;28;20425;-51
2021/12/10 04:55:37;;;;;;;117.60;31.03;;;0.70;99.90;;;;;;5092961;28;20183;-56
2021/12/10 04:58:04;;;;;;;207.00;28.23;;;0.60;99.90;;;;;;5093086;28;20668;-55
2021/12/10 05:00:38;;;;;;;95.17;26.47;;;0.70;99.90;;;;;;5092979;28;20211;-55
2021/12/10 05:03:05;;;;;;;138.27;31.43;;;0.70;99.90;;;;;;5093029;28;20570;-55
2021/12/10 05:05:32;;;;;;;207.03;29.07;;;0.70;99.90;;;;;;5074686;28;20650;-57
2021/12/10 05:07:58;;;;;;;207.73;27.40;;;0.70;99.90;;;;;;5092567;28;20167;-55
2021/12/10 05:10:24;;;;;;;229.60;27.40;;;0.70;99.90;;;;;;5092507;28;20699;-55
2021/12/10 05:12:49;;;;;;;250.07;29.23;;;0.60;99.90;;;;;;5092442;28;20539;-56
2021/12/10 05:15:20;;;;;;;270.53;30.70;;;0.60;99.90;;;;;;5092438;28;20258;-55
2021/12/10 05:17:48;;;;;;;161.03;29.33;;;0.60;99.90;;;;;;5092600;28;20171;-53
2021/12/10 05:20:18;;;;;;;133.90;25.40;;;0.60;99.90;;;;;;5092603;28;20182;-56
2021/12/10 05:22:46;;;;;;;205.63;25.93;;;0.60;99.90;;;;;;5092426;28;20193;-54
2021/12/10 05:25:14;;;;;;;213.67;23.30;;;0.60;99.90;;;;;;5091983;28;20194;-55
2021/12/10 05:27:41;;;;;;;179.77;27.37;;;0.60;99.90;;;;;;5092077;28;20172;-55
2021/12/10 05:30:10;;;;;;;163.73;23.93;;;0.60;99.90;;;;;;5092282;28;20336;-52
2021/12/10 05:32:36;;;;;;;100.20;23.17;;;0.60;99.90;;;;;;5073840;28;20235;-56
2021/12/10 05:35:04;;;;;;;131.53;28.50;;;0.60;99.90;;;;;;5092052;28;20184;-53
2021/12/10 05:37:29;;;;;;;149.60;23.57;;;0.70;99.90;;;;;;5091627;28;20175;-56
2021/12/10 05:39:55;;;;;;;123.97;25.23;;;0.70;99.90;;;;;;5091749;28;20176;-54
2021/12/10 05:42:21;;;;;;;151.57;26.77;;;0.70;99.90;;;;;;5072815;28;20222;-56
2021/12/10 05:44:47;;;;;;;107.20;24.50;;;0.80;99.90;;;;;;5091675;28;20229;-55
2021/12/10 05:47:12;;;;;;;100.13;25.23;;;0.80;99.90;;;;;;5072791;28;20199;-57
2021/12/10 05:49:39;;;;;;;99.47;21.70;;;0.80;99.90;;;;;;5091979;28;20185;-58
2021/12/10 05:52:06;;;;;;;76.90;22.93;;;0.80;99.90;;;;;;5091633;28;20187;-57
2021/12/10 05:54:32;;;;;;;101.20;22.70;;;0.80;99.90;;;;;;5091385;28;20319;-55
2021/12/10 05:56:58;;;;;;;106.90;24.60;;;0.90;99.90;;;;;;5091189;28;20190;-57
2021/12/10 05:59:24;;;;;;;584.53;72.27;;;0.90;99.90;;;;;;5091253;28;20187;-57
2021/12/10 06:01:50;;;;;;;1143.47;199.27;;;1.10;99.90;;;;;;5091685;28;20571;-52
2021/12/10 06:04:22;;;;;;;97.17;26.27;;;1.30;99.90;;;;;;5091211;28;20192;-56
2021/12/10 06:06:48;;;;;;;99.23;29.30;;;1.40;99.90;;;;;;5091680;28;20187;-56
2021/12/10 06:09:13;;;;;;;92.97;26.00;;;1.50;99.90;;;;;;5091645;28;20189;-57
2021/12/10 06:11:39;;;;;;;94.07;26.50;;;1.40;99.90;;;;;;5090805;28;20226;-62
2021/12/10 06:14:06;;;;;;;91.90;24.57;;;1.50;99.90;;;;;;5069434;28;20229;-57
2021/12/10 06:16:32;;;;;;;111.30;28.80;;;1.50;99.90;;;;;;5070690;28;20195;-58
2021/12/10 06:18:59;;;;;;;92.30;25.73;;;1.40;99.90;;;;;;5071206;28;20641;-56
2021/12/10 06:21:24;;;;;;;83.40;23.90;;;1.40;99.90;;;;;;5071178;28;20215;-57
2021/12/10 06:23:50;;;;;;;100.47;25.03;;;1.50;99.90;;;;;;5071145;28;20195;-57
2021/12/10 06:26:17;;;;;;;100.40;26.73;;;1.40;99.90;;;;;;5070596;28;20272;-56
2021/12/10 06:28:44;;;;;;;96.57;23.80;;;1.30;99.90;;;;;;5071242;28;20605;-55
2021/12/10 06:31:13;;;;;;;83.93;24.37;;;1.30;99.90;;;;;;5071035;28;20198;-58
2021/12/10 06:33:39;;;;;;;88.20;24.73;;;1.30;99.90;;;;;;5071216;28;20180;-58
2021/12/10 06:36:06;;;;;;;85.00;26.70;;;1.30;99.90;;;;;;5070979;28;20230;-59
2021/12/10 06:38:33;;;;;;;85.40;23.63;;;1.40;99.90;;;;;;5070444;28;20188;-58
2021/12/10 06:41:00;;;;;;;91.00;22.50;;;1.40;99.90;;;;;;5073985;28;20565;-58
2021/12/10 06:43:26;;;;;;;83.77;23.60;;;1.40;99.90;;;;;;5074690;28;20214;-60
2021/12/10 06:45:53;;;;;;;78.53;22.87;;;1.40;99.90;;;;;;5073987;28;20638;-58
2021/12/10 06:48:23;;;;;;;82.57;23.00;;;1.40;99.90;;;;;;5074731;28;20180;-57
2021/12/10 06:50:54;;;;;;;83.23;21.63;;;1.40;99.90;;;;;;5075370;28;20185;-58
2021/12/10 06:53:23;;;;;;;75.97;20.63;;;1.50;99.90;;;;;;5074620;28;20207;-61
2021/12/10 06:55:49;;;;;;;94.67;25.83;;;1.40;99.90;;;;;;5074378;28;20255;-62
2021/12/10 06:58:16;;;;;;;100.13;27.43;;;1.50;99.90;;;;;;5074802;28;20620;-63
2021/12/10 07:00:59;;;;;;;90.27;24.40;;;1.50;99.90;;;;;;5072860;28;20732;-62
2021/12/10 07:03:27;;;;;;;87.27;23.80;;;1.50;99.90;;;;;;5072270;28;20231;-61
2021/12/10 07:05:55;;;;;;;96.20;24.67;;;1.50;99.90;;;;;;5072725;28;20283;-62
2021/12/10 07:08:23;;;;;;;91.73;22.67;;;1.50;99.90;;;;;;5072229;28;20203;-56
2021/12/10 07:10:49;;;;;;;103.33;24.33;;;1.50;99.90;;;;;;5072612;28;20216;-64
2021/12/10 07:13:16;;;;;;;82.60;22.20;;;1.60;99.90;;;;;;5076596;28;20224;-65
2021/12/10 07:15:45;;;;;;;96.93;26.40;;;1.60;99.90;;;;;;5092728;28;20179;-60
2021/12/10 07:18:11;;;;;;;103.37;24.17;;;1.60;99.90;;;;;;5073872;28;20547;-60
2021/12/10 07:20:39;;;;;;;93.73;23.27;;;1.50;99.90;;;;;;5091911;28;20200;-61
2021/12/10 07:23:06;;;;;;;108.10;25.83;;;1.50;99.90;;;;;;5091945;28;20210;-57
2021/12/10 07:25:32;;;;;;;108.33;25.00;;;1.50;99.90;;;;;;5091645;28;20211;-57
2021/12/10 07:27:58;;;;;;;107.13;25.37;;;1.50;99.90;;;;;;5088516;28;20542;-58
2021/12/10 07:30:26;;;;;;;96.13;26.50;;;1.50;99.90;;;;;;5091451;28;20644;-61
2021/12/10 07:32:52;;;;;;;107.27;25.20;;;1.60;99.90;;;;;;5092088;28;20327;-61
2021/12/10 07:35:19;;;;;;;110.87;28.83;;;1.50;99.90;;;;;;5073599;28;20230;-59
2021/12/10 07:37:45;;;;;;;115.93;25.97;;;1.50;99.90;;;;;;5088946;28;20183;-57
2021/12/10 07:40:15;;;;;;;110.07;27.63;;;1.60;99.90;;;;;;5072975;28;20185;-57
2021/12/10 07:42:40;;;;;;;130.07;29.27;;;1.50;99.90;;;;;;5091486;28;20196;-61
2021/12/10 07:45:08;;;;;;;161.80;41.33;;;1.60;99.90;;;;;;5084163;28;20627;-60
2021/12/10 07:47:36;;;;;;;127.47;28.87;;;1.60;99.90;;;;;;5072071;28;20192;-67
2021/12/10 07:50:07;;;;;;;112.07;26.53;;;1.60;99.90;;;;;;5071128;28;20190;-61
2021/12/10 07:52:34;;;;;;;113.53;28.13;;;1.60;99.90;;;;;;5091269;28;20267;-59
2021/12/10 07:55:02;;;;;;;124.03;26.07;;;1.50;99.90;;;;;;5091575;28;20188;-60
2021/12/10 07:57:29;;;;;;;108.43;25.23;;;1.50;99.90;;;;;;5090567;28;20277;-60
2021/12/10 07:59:55;;;;;;;101.73;26.43;;;1.50;99.90;;;;;;5091322;28;20202;-56
2021/12/10 08:02:21;;;;;;;106.33;27.27;;;1.50;99.90;;;;;;5091317;28;20256;-59
2021/12/10 08:04:47;;;;;;;116.83;26.30;;;1.40;99.90;;;;;;5091087;28;20209;-62
2021/12/10 08:07:13;;;;;;;112.03;28.30;;;1.40;99.90;;;;;;5091554;28;20175;-61
2021/12/10 08:09:40;;;;;;;104.03;26.77;;;1.50;99.90;;;;;;5072500;28;20181;-59
2021/12/10 08:12:07;;;;;;;110.40;27.77;;;1.40;99.90;;;;;;5092078;28;20214;-62
2021/12/10 08:14:32;;;;;;;116.97;28.73;;;1.50;99.90;;;;;;5058499;28;20239;-60
2021/12/10 08:16:58;;;;;;;115.57;28.40;;;1.50;99.90;;;;;;5091491;28;20188;-58
2021/12/10 08:19:24;;;;;;;126.43;31.27;;;1.60;99.90;;;;;;5072641;28;20295;-59
2021/12/10 08:21:50;;;;;;;137.07;29.57;;;1.60;99.90;;;;;;5091444;28;20201;-61
2021/12/10 08:24:16;;;;;;;117.33;28.23;;;1.70;99.90;;;;;;5072368;28;20205;-62
2021/12/10 08:26:42;;;;;;;129.03;33.17;;;1.80;99.90;;;;;;5092277;28;20267;-61
2021/12/10 08:29:09;;;;;;;134.13;30.67;;;1.90;99.90;;;;;;5092359;28;20181;-60
2021/12/10 08:31:36;;;;;;;127.13;32.67;;;1.90;99.90;;;;;;5093050;28;20177;-59
2021/12/10 08:34:02;;;;;;;131.23;33.17;;;2.10;99.90;;;;;;5093013;28;20279;-57
2021/12/10 08:36:29;;;;;;;139.40;32.80;;;2.20;99.90;;;;;;5074748;28;20181;-56
2021/12/10 08:38:55;;;;;;;130.07;30.53;;;2.30;99.90;;;;;;5092573;28;20173;-62
2021/12/10 08:41:24;;;;;;;130.20;30.43;;;2.40;99.90;;;;;;5074113;28;20307;-61
2021/12/10 08:43:50;;;;;;;128.97;34.00;;;2.40;99.90;;;;;;5085210;28;20194;-61
2021/12/10 08:46:17;;;;;;;130.73;34.80;;;2.30;99.90;;;;;;5071985;28;20185;-69
2021/12/10 08:48:44;;;;;;;133.67;33.57;;;2.30;99.90;;;;;;5072456;28;20182;-62
2021/12/10 08:51:24;;;;;;;130.87;33.87;;;2.30;99.90;;;;;;5072746;28;20276;-63
2021/12/10 08:53:50;;;;;;;132.60;32.77;;;2.30;99.90;;;;;;5071132;28;20178;-63
2021/12/10 08:56:16;;;;;;;136.20;33.80;;;2.30;99.90;;;;;;5076377;28;20198;-62
2021/12/10 08:58:42;;;;;;;132.73;34.30;;;2.30;99.90;;;;;;5091385;28;20188;-64
2021/12/10 09:01:12;;;;;;;125.07;33.53;;;2.40;99.90;;;;;;5091258;28;20204;-62
2021/12/10 09:03:38;;;;;;;137.17;37.73;;;2.30;99.90;;;;;;5089999;28;20165;-56
2021/12/10 09:06:06;;;;;;;133.23;35.17;;;2.40;99.90;;;;;;5090611;28;20184;-70
2021/12/10 09:08:32;;;;;;;114.97;31.53;;;2.40;99.90;;;;;;5091322;28;20260;-61
2021/12/10 09:10:59;;;;;;;128.47;33.77;;;2.50;99.90;;;;;;5081909;28;20205;-58
2021/12/10 09:13:25;;;;;;;109.80;29.33;;;2.60;99.90;;;;;;5090808;28;20684;-62
2021/12/10 09:15:57;;;;;;;114.43;30.97;;;2.70;99.90;;;;;;5091634;28;20180;-63
2021/12/10 09:18:24;;;;;;;130.23;32.70;;;2.80;99.90;;;;;;5091992;28;20169;-60
2021/12/10 09:20:53;;;;;;;112.63;29.13;;;2.60;99.90;;;;;;5092612;28;20181;-56
2021/12/10 09:23:22;;;;;;;130.27;29.47;;;2.40;99.90;;;;;;5091752;28;20173;-58
2021/12/10 09:25:50;;;;;;;134.03;33.53;;;2.30;99.90;;;;;;5091808;28;20198;-59
2021/12/10 09:28:16;;;;;;;131.17;33.43;;;2.40;99.90;;;;;;5073486;28;20184;-57
2021/12/10 09:30:45;;;;;;;131.60;34.37;;;2.50;99.90;;;;;;5091518;28;20181;-61
2021/12/10 09:33:11;;;;;;;130.00;32.17;;;2.40;99.90;;;;;;5091511;28;20216;-63
2021/12/10 09:35:38;;;;;;;130.87;32.27;;;2.30;99.90;;;;;;5091613;28;20207;-58
2021/12/10 09:38:05;;;;;;;130.23;32.87;;;2.50;99.90;;;;;;5091455;28;20269;-58
2021/12/10 09:40:35;;;;;;;113.37;30.50;;;2.60;99.90;;;;;;5091362;28;20211;-55
2021/12/10 09:43:05;;;;;;;132.83;34.23;;;2.80;99.90;;;;;;5091618;28;20224;-63
2021/12/10 09:45:33;;;;;;;123.83;34.80;;;2.80;99.90;;;;;;5072555;28;20184;-60
2021/12/10 09:48:00;;;;;;;113.17;31.90;;;2.90;99.90;;;;;;5091074;28;20216;-62
2021/12/10 09:50:30;;;;;;;128.57;33.60;;;3.10;99.90;;;;;;5091175;28;20180;-61
2021/12/10 09:52:57;;;;;;;131.30;32.47;;;2.90;99.90;;;;;;5091327;28;20454;-61
2021/12/10 09:55:23;;;;;;;133.57;35.23;;;2.80;99.90;;;;;;5090627;28;20173;-62
2021/12/10 09:57:51;;;;;;;140.10;33.10;;;2.90;99.90;;;;;;5072635;28;20185;-57
2021/12/10 10:00:29;;;;;;;127.10;33.77;;;2.90;99.90;;;;;;5091119;28;20187;-67
2021/12/10 10:02:56;;;;;;;138.13;37.23;;;2.80;99.90;;;;;;5090353;28;20193;-60
2021/12/10 10:05:27;;;;;;;151.47;40.77;;;2.70;99.90;;;;;;5090068;28;20208;-61
2021/12/10 10:07:55;;;;;;;136.90;40.53;;;2.80;99.90;;;;;;5090638;28;20196;-57
2021/12/10 10:10:23;;;;;;;129.13;36.00;;;2.70;99.90;;;;;;5090413;28;20191;-53
2021/12/10 10:12:51;;;;;;;155.53;37.33;;;2.70;99.90;;;;;;5090613;28;20188;-54
2021/12/10 10:15:22;;;;;;;162.20;41.37;;;2.70;99.90;;;;;;5093222;28;20229;-61
2021/12/10 10:17:48;;;;;;;152.30;40.40;;;2.70;99.90;;;;;;5092981;28;20176;-60
2021/12/10 10:20:16;;;;;;;149.40;39.90;;;2.70;99.90;;;;;;5075267;28;20275;-57
2021/12/10 10:22:44;;;;;;;149.67;40.33;;;2.70;99.90;;;;;;5093093;28;20212;-53
2021/12/10 10:25:11;;;;;;;149.20;39.50;;;2.60;99.90;;;;;;5074735;28;20196;-58
2021/12/10 10:27:40;;;;;;;190.23;51.03;;;2.60;99.90;;;;;;5092231;28;20599;-58
2021/12/10 10:30:30;;;;;;;156.10;42.07;;;2.70;99.90;;;;;;5093026;28;20174;-57
2021/12/10 10:33:00;;;;;;;225.57;58.50;;;2.80;99.90;;;;;;5094901;28;20517;-55
2021/12/10 10:35:30;;;;;;;147.00;38.40;;;2.80;99.90;;;;;;5094144;28;20260;-57
2021/12/10 10:37:57;;;;;;;148.33;39.17;;;2.70;99.90;;;;;;5095090;28;20168;-55
2021/12/10 10:40:29;;;;;;;142.13;39.90;;;2.70;99.90;;;;;;5094745;28;20212;-57
2021/12/10 10:42:55;;;;;;;157.53;45.37;;;2.70;99.90;;;;;;5094401;28;20228;-60
2021/12/10 10:45:29;;;;;;;153.53;43.33;;;2.70;99.90;;;;;;5075953;28;20184;-56
2021/12/10 10:47:57;;;;;;;171.17;45.43;;;2.70;99.90;;;;;;5094301;28;20596;-55
2021/12/10 10:50:30;;;;;;;157.37;44.63;;;2.70;99.90;;;;;;5094461;28;20625;-60
2021/12/10 10:53:00;;;;;;;145.50;42.70;;;2.70;99.90;;;;;;5094406;28;20197;-53
2021/12/10 10:55:30;;;;;;;162.50;44.30;;;2.80;99.90;;;;;;5093166;28;20655;-54
2021/12/10 10:58:10;;;;;;;169.77;46.17;;;2.90;99.90;;;;;;5093985;28;20173;-56
2021/12/10 11:01:00;;;;;;;174.80;46.90;;;2.80;99.90;;;;;;5094247;28;20345;-53
2021/12/10 11:03:39;;;;;;;171.00;44.10;;;2.70;99.90;;;;;;5093886;28;20157;-53
2021/12/10 11:06:18;;;;;;;177.70;48.03;;;2.60;99.90;;;;;;5094622;28;20192;-54
2021/12/10 11:08:52;;;;;;;145.30;42.03;;;2.60;99.90;;;;;;5106414;28;20180;-55
2021/12/10 11:11:23;;;;;;;150.60;41.90;;;2.70;99.90;;;;;;5113142;28;20275;-59
2021/12/10 11:14:00;;;;;;;143.20;40.13;;;2.80;99.90;;;;;;5091189;28;20743;-58
2021/12/10 11:16:29;;;;;;;118.60;38.10;;;2.90;99.90;;;;;;5093719;28;20199;-57
2021/12/10 11:19:15;;;;;;;122.27;37.77;;;3.00;99.90;;;;;;5093981;28;20208;-55
2021/12/10 11:21:43;;;;;;;120.33;39.53;;;3.00;99.90;;;;;;5092675;28;20215;-58
2021/12/10 11:24:43;;;;;;;119.07;36.97;;;3.00;99.90;;;;;;5094204;28;20652;-54
2021/12/10 11:27:13;;;;;;;120.63;42.87;;;2.90;99.90;;;;;;5093436;28;20168;-55
2021/12/10 11:29:48;;;;;;;116.70;35.70;;;3.00;99.90;;;;;;5094511;28;20174;-57
2021/12/10 11:32:33;;;;;;;138.50;40.80;;;3.10;99.90;;;;;;5094136;28;20177;-57
2021/12/10 11:35:08;;;;;;;120.63;38.20;;;3.20;99.90;;;;;;5092647;28;20167;-57
2021/12/10 11:38:01;;;;;;;123.63;37.77;;;3.40;99.90;;;;;;5093998;28;20167;-56
2021/12/10 11:40:37;;;;;;;116.23;38.93;;;3.30;99.90;;;;;;5093453;28;20195;-55
2021/12/10 11:48:50;;;;;;;103.03;33.80;;;3.20;99.90;;;;;;5093896;28;20269;-55
2021/12/10 11:51:26;;;;;;;122.67;36.93;;;3.30;99.90;;;;;;5093559;28;20171;-56
2021/12/10 11:54:01;;;;;;;120.03;38.37;;;3.40;99.90;;;;;;5093945;28;20260;-59
2021/12/10 11:56:40;;;;;;;107.60;32.37;;;3.30;99.90;;;;;;5093526;28;20180;-59
2021/12/10 11:59:23;;;;;;;89.77;31.27;;;3.00;99.90;;;;;;5092420;28;20171;-52
2021/12/10 12:02:06;;;;;;;101.90;33.37;;;3.00;99.90;;;;;;5073551;28;20207;-59
2021/12/10 12:04:42;;;;;;;117.60;39.27;;;3.00;99.90;;;;;;5073328;28;20193;-57
2021/12/10 12:07:25;;;;;;;100.83;34.90;;;3.10;99.90;;;;;;5073352;28;20166;-57
2021/12/10 12:10:21;;;;;;;98.43;32.67;;;3.10;99.90;;;;;;5073301;28;20216;-55
2021/12/10 12:13:04;;;;;;;99.90;36.17;;;3.00;99.90;;;;;;5072618;28;20193;-58
2021/12/10 12:15:39;;;;;;;97.53;34.43;;;3.00;99.90;;;;;;5092704;28;20631;-55
2021/12/10 12:18:14;;;;;;;97.57;31.77;;;3.00;99.90;;;;;;5093276;28;20170;-57
2021/12/10 12:21:53;;;;;;;85.97;29.67;;;3.00;99.90;;;;;;5092629;28;20240;-57
2021/12/10 12:27:12;;;;;;;99.27;35.30;;;3.00;99.90;;;;;;5092459;28;20169;-56
2021/12/10 12:29:53;;;;;;;95.83;34.37;;;3.00;99.90;;;;;;5092931;28;20278;-56
2021/12/10 12:32:23;;;;;;;98.83;33.23;;;3.00;99.90;;;;;;5092527;28;20255;-58
2021/12/10 12:34:49;;;;;;;98.33;34.50;;;2.90;99.90;;;;;;5092752;28;20176;-55
2021/12/10 12:37:18;;;;;;;91.10;33.60;;;2.80;99.90;;;;;;5091611;28;20529;-54
2021/12/10 12:39:59;;;;;;;87.27;35.80;;;2.70;99.90;;;;;;5075430;28;20525;-56
2021/12/10 12:42:33;;;;;;;78.00;30.30;;;2.60;99.90;;;;;;5074034;28;20302;-55
2021/12/10 12:45:01;;;;;;;84.10;31.40;;;2.70;99.90;;;;;;5092294;28;20264;-56
2021/12/10 12:47:33;;;;;;;94.93;36.03;;;2.70;99.90;;;;;;5092046;28;20613;-57
2021/12/10 12:50:14;;;;;;;90.63;34.17;;;2.70;99.90;;;;;;5074119;28;20621;-57
2021/12/10 12:52:55;;;;;;;84.90;31.57;;;2.70;99.90;;;;;;5092147;28;20177;-57
2021/12/10 12:55:53;;;;;;;92.43;34.27;;;2.60;99.90;;;;;;5092510;28;20162;-56
2021/12/10 12:58:35;;;;;;;105.30;36.30;;;2.60;99.90;;;;;;5073679;28;20172;-55
2021/12/10 13:01:20;;;;;;;90.87;33.07;;;3.00;99.90;;;;;;5092617;28;20596;-55